Time;durP1;ratioP1;P1;durP2;ratioP2;P2;SDS_P1;SDS_P2;PMS_P1;PMS_P2;Temp;Humidity;BMP_temperature;BMP_pressure;BME280_temperature;BME280_humidity;BME280_pressure;Samples;Min_cycle;Max_cycle;Signal;HPM_P1;HPM_P2
2022/08/04 00:01:49;;;;;;;3.30;1.70;;;;;;;17.72;71.04;93987.16;5008008;28;20188;-72
2022/08/04 00:04:33;;;;;;;2.47;1.87;;;;;;;17.73;70.77;93978.03;5008655;28;20282;-72
2022/08/04 00:07:27;;;;;;;4.20;1.93;;;;;;;17.82;69.69;93979.16;5009103;28;20286;-72
2022/08/04 00:10:15;;;;;;;5.07;1.63;;;;;;;17.79;69.32;93981.16;5007910;28;20259;-72
2022/08/04 00:13:02;;;;;;;3.47;1.83;;;;;;;17.79;70.70;93986.09;5010587;28;20227;-72
2022/08/04 00:15:50;;;;;;;5.10;1.90;;;;;;;17.83;69.95;93974.94;5009249;28;20191;-73
2022/08/04 00:18:40;;;;;;;2.03;1.83;;;;;;;17.95;69.77;93977.59;5009870;28;20254;-72
2022/08/04 00:21:26;;;;;;;3.33;1.80;;;;;;;17.86;70.72;93985.00;5010922;28;20215;-73
2022/08/04 00:24:11;;;;;;;3.87;2.13;;;;;;;17.90;70.64;93979.50;5008560;28;20207;-73
2022/08/04 00:26:56;;;;;;;2.13;1.73;;;;;;;17.83;70.82;93983.44;5007693;28;20195;-72
2022/08/04 00:29:40;;;;;;;2.77;1.87;;;;;;;17.68;71.88;93975.66;5008239;28;20199;-72
2022/08/04 00:32:26;;;;;;;5.80;2.07;;;;;;;17.44;72.58;93966.00;5008557;28;20212;-72
2022/08/04 00:35:13;;;;;;;3.53;1.90;;;;;;;17.35;73.17;93976.97;5009241;28;20226;-72
2022/08/04 00:37:58;;;;;;;1.70;1.60;;;;;;;17.22;73.52;93972.09;5008477;28;20675;-72
2022/08/04 00:40:45;;;;;;;2.30;1.73;;;;;;;17.20;73.96;93971.28;5009444;28;20680;-72
2022/08/04 00:43:46;;;;;;;2.00;1.63;;;;;;;17.13;74.30;93966.69;5009538;28;20278;-72
2022/08/04 00:46:49;;;;;;;3.37;1.70;;;;;;;17.07;74.79;93967.13;5007375;28;20272;-72
2022/08/04 00:49:50;;;;;;;1.97;1.77;;;;;;;17.03;74.99;93961.28;5009871;28;20216;-72
2022/08/04 00:52:53;;;;;;;5.47;1.70;;;;;;;17.02;75.25;93967.56;5009004;28;20207;-72
2022/08/04 00:56:12;;;;;;;4.40;1.80;;;;;;;17.04;75.03;93971.22;5006466;28;20571;-72
2022/08/04 00:59:16;;;;;;;3.17;1.70;;;;;;;16.92;75.96;93979.13;5003615;28;20207;-72
2022/08/04 01:02:21;;;;;;;4.97;1.50;;;;;;;16.88;76.26;93973.28;5007135;28;20187;-72
2022/08/04 01:05:21;;;;;;;5.43;1.70;;;;;;;16.87;76.47;93972.53;5007976;28;20227;-72
2022/08/04 01:08:44;;;;;;;3.97;2.17;;;;;;;16.90;76.25;93970.56;5006083;28;20668;-72
2022/08/04 01:12:06;;;;;;;1.70;1.60;;;;;;;16.91;76.21;93975.56;4993664;28;20269;-72
2022/08/04 01:15:12;;;;;;;2.77;2.40;;;;;;;16.94;76.05;93970.75;5008973;28;20200;-72
2022/08/04 01:18:07;;;;;;;5.37;1.50;;;;;;;16.89;76.14;93975.47;5009800;28;20199;-72
2022/08/04 01:21:13;;;;;;;2.07;1.80;;;;;;;16.88;76.17;93973.28;5008078;28;20656;-72
2022/08/04 01:24:19;;;;;;;3.43;1.97;;;;;;;16.83;75.85;93968.78;5007564;28;20346;-72
2022/08/04 01:27:08;;;;;;;2.33;2.13;;;;;;;16.89;76.51;93969.09;5008666;28;20191;-72
2022/08/04 01:29:57;;;;;;;5.03;2.00;;;;;;;16.89;76.15;93963.44;5009542;28;20278;-72
2022/08/04 01:32:58;;;;;;;3.00;2.00;;;;;;;16.88;76.72;93961.97;5007416;28;20199;-72
2022/08/04 01:35:47;;;;;;;3.13;2.03;;;;;;;16.85;76.21;93963.25;5005378;28;20202;-72
2022/08/04 01:38:37;;;;;;;2.90;1.80;;;;;;;16.81;76.33;93963.03;5009283;28;20200;-72
2022/08/04 01:41:23;;;;;;;2.43;2.00;;;;;;;16.81;77.09;93969.41;5010036;28;20707;-72
2022/08/04 01:44:09;;;;;;;1.87;1.63;;;;;;;16.77;76.75;93963.56;5004021;28;20204;-72
2022/08/04 01:46:54;;;;;;;5.73;1.77;;;;;;;16.70;77.47;93964.63;5009593;28;20196;-72
2022/08/04 01:49:40;;;;;;;2.70;2.03;;;;;;;16.69;78.09;93963.16;5006595;28;20200;-72
2022/08/04 01:52:27;;;;;;;2.40;2.20;;;;;;;16.67;78.34;93957.41;5008079;28;20220;-72
2022/08/04 01:55:13;;;;;;;2.00;1.73;;;;;;;16.68;78.18;93960.97;5005614;28;20203;-73
2022/08/04 01:57:59;;;;;;;6.27;3.10;;;;;;;16.65;78.22;93962.97;5006148;28;20207;-72
2022/08/04 02:01:07;;;;;;;2.60;2.20;;;;;;;16.56;79.16;93966.72;5007635;28;20223;-72
2022/08/04 02:03:51;;;;;;;5.20;2.30;;;;;;;16.52;79.53;93961.63;5005646;28;20562;-72
2022/08/04 02:07:02;;;;;;;3.53;2.03;;;;;;;16.40;81.12;93954.63;5007563;28;20223;-72
2022/08/04 02:10:13;;;;;;;2.57;1.90;;;;;;;16.33;81.48;93958.50;5008404;28;20657;-72
2022/08/04 02:13:03;;;;;;;3.17;2.40;;;;;;;16.32;81.31;93954.94;5000180;28;20265;-72
2022/08/04 02:16:15;;;;;;;4.17;2.20;;;;;;;16.39;80.41;93965.19;5006446;28;20200;-72
2022/08/04 02:19:36;;;;;;;4.27;2.60;;;;;;;16.40;80.57;93960.28;5006303;28;20200;-72
2022/08/04 02:22:25;;;;;;;3.03;2.47;;;;;;;16.41;80.15;93973.78;5007832;28;20208;-72
2022/08/04 02:25:10;;;;;;;2.40;2.20;;;;;;;16.30;80.97;93963.31;5005347;28;20258;-73
2022/08/04 02:28:00;;;;;;;3.90;2.33;;;;;;;16.30;81.74;93968.22;5006896;28;20207;-72
2022/08/04 02:31:14;;;;;;;3.43;2.80;;;;;;;16.24;82.54;93965.81;5002393;28;20220;-72
2022/08/04 02:34:08;;;;;;;3.47;3.17;;;;;;;16.25;83.12;93964.47;4993804;28;20207;-72
2022/08/04 02:36:53;;;;;;;5.97;3.17;;;;;;;16.24;82.79;93965.81;5006657;28;20195;-72
2022/08/04 02:39:42;;;;;;;3.90;2.37;;;;;;;16.26;82.01;93965.22;5005262;28;20920;-72
2022/08/04 02:42:28;;;;;;;13.20;10.30;;;;;;;16.23;82.37;93958.72;5008648;28;20223;-72
2022/08/04 02:45:13;;;;;;;51.03;35.07;;;;;;;16.32;83.06;93960.59;5005170;28;20253;-72
2022/08/04 02:48:01;;;;;;;59.53;43.70;;;;;;;16.35;83.78;93962.16;5008672;28;20211;-72
2022/08/04 02:50:47;;;;;;;31.57;22.43;;;;;;;16.33;84.64;93959.22;4999537;28;20375;-72
2022/08/04 02:53:35;;;;;;;32.90;22.97;;;;;;;16.28;84.61;93959.66;5007503;28;20294;-72
2022/08/04 02:56:21;;;;;;;39.47;25.03;;;;;;;16.29;85.16;93950.56;5004472;28;20207;-71
2022/08/04 02:59:10;;;;;;;29.23;21.80;;;;;;;16.28;85.07;93951.91;5005404;28;20549;-72
2022/08/04 03:01:56;;;;;;;28.47;17.70;;;;;;;16.28;84.47;93943.44;5005710;28;20200;-72
2022/08/04 03:04:58;;;;;;;15.47;12.87;;;;;;;16.32;84.51;93948.53;5001398;28;20223;-72
2022/08/04 03:08:08;;;;;;;17.33;12.43;;;;;;;16.34;84.42;93946.56;5008019;28;20212;-72
2022/08/04 03:11:19;;;;;;;15.50;11.43;;;;;;;16.30;83.89;93946.34;5004966;28;20322;-72
2022/08/04 03:14:27;;;;;;;11.80;8.33;;;;;;;16.24;84.25;93948.88;4999626;28;20565;-72
2022/08/04 03:17:51;;;;;;;6.60;5.50;;;;;;;16.19;84.84;93941.53;5005388;28;20191;-72
2022/08/04 03:20:55;;;;;;;6.60;5.53;;;;;;;16.20;84.83;93943.00;5007753;28;20196;-72
2022/08/04 03:23:58;;;;;;;6.63;5.10;;;;;;;16.27;84.98;93944.06;5004516;28;20204;-72
2022/08/04 03:27:09;;;;;;;6.33;4.87;;;;;;;16.25;85.37;93943.94;5011937;28;20265;-72
2022/08/04 03:30:14;;;;;;;6.37;4.83;;;;;;;16.29;85.72;93950.56;5010250;28;20291;-72
2022/08/04 03:33:33;;;;;;;4.83;4.37;;;;;;;16.29;85.70;93942.06;5007861;28;20200;-72
2022/08/04 03:36:43;;;;;;;7.73;4.77;;;;;;;16.30;85.62;93943.50;5007606;28;20259;-72
2022/08/04 03:39:43;;;;;;;5.53;4.60;;;;;;;16.32;85.83;93954.94;5012775;28;20192;-72
2022/08/04 03:42:36;;;;;;;5.40;4.87;;;;;;;16.40;85.63;93954.63;5006006;28;20196;-72
2022/08/04 03:45:23;;;;;;;5.57;4.90;;;;;;;16.43;83.70;93953.34;5007369;28;20204;-72
2022/08/04 03:48:29;;;;;;;8.17;5.43;;;;;;;16.45;82.95;93957.00;5005731;28;20299;-72
2022/08/04 03:55:05;;;;;;;7.70;5.17;;;;;;;16.34;83.24;93962.78;5006035;28;20224;-72
2022/08/04 03:58:13;;;;;;;4.37;3.97;;;;;;;16.29;83.00;93964.69;5010328;28;20283;-72
2022/08/04 04:01:16;;;;;;;4.10;3.70;;;;;;;16.14;83.97;93956.84;5011533;28;20200;-72
2022/08/04 04:04:06;;;;;;;4.90;3.37;;;;;;;16.04;85.14;93959.16;5010372;28;20608;-72
2022/08/04 04:07:32;;;;;;;8.83;3.80;;;;;;;16.03;85.99;93957.69;5009364;28;20207;-72
2022/08/04 04:10:40;;;;;;;5.17;3.20;;;;;;;16.07;85.81;93964.28;4994076;28;20200;-72
2022/08/04 04:13:53;;;;;;;6.13;3.37;;;;;;;15.97;85.81;93960.94;5010693;28;20246;-72
2022/08/04 04:17:15;;;;;;;3.10;2.80;;;;;;;16.09;85.94;93966.47;5009021;28;20660;-72
2022/08/04 04:20:02;;;;;;;3.17;2.90;;;;;;;16.14;85.51;93957.56;5011115;28;20208;-72
2022/08/04 04:23:07;;;;;;;4.63;2.77;;;;;;;16.15;86.25;93963.97;5005793;28;20204;-72
2022/08/04 04:26:18;;;;;;;4.03;2.83;;;;;;;17.82;78.76;93967.81;5009089;28;20203;-72
2022/08/04 04:29:27;;;;;;;2.97;2.60;;;;;;;19.89;68.43;93953.59;5007603;28;20200;-72
2022/08/04 04:32:17;;;;;;;5.27;2.37;;;;;;;20.75;64.15;93963.81;5008471;28;20227;-72
2022/08/04 04:35:18;;;;;;;3.37;1.97;;;;;;;21.06;61.70;93951.31;5007879;28;20549;-72
2022/08/04 04:38:27;;;;;;;3.23;1.97;;;;;;;20.93;62.28;93958.72;5009202;28;20202;-72
2022/08/04 04:41:29;;;;;;;3.57;2.40;;;;;;;21.57;60.11;93965.06;5009914;28;20631;-73
2022/08/04 04:44:40;;;;;;;1.97;1.77;;;;;;;20.29;63.11;93966.47;5001223;28;20207;-73
2022/08/04 04:47:56;;;;;;;3.60;2.10;;;;;;;19.44;67.94;93977.50;5007212;28;20204;-72
2022/08/04 04:50:59;;;;;;;3.50;2.45;;;;;;;19.02;70.83;93970.09;4975702;28;20232;-73
2022/08/04 04:54:19;;;;;;;4.27;2.23;;;;;;;18.96;71.45;93968.47;5005178;28;20195;-73
2022/08/04 04:57:17;;;;;;;2.53;2.33;;;;;;;19.03;71.45;93971.56;5008593;28;20200;-73
2022/08/04 05:00:09;;;;;;;2.43;2.23;;;;;;;19.22;70.49;93971.66;5009022;28;20219;-73
2022/08/04 05:03:31;;;;;;;7.30;3.15;;;;;;;19.47;70.18;93969.78;5003846;28;20197;-72
2022/08/04 05:06:18;;;;;;;2.53;2.33;;;;;;;19.55;71.30;93982.22;5007368;28;20216;-73
2022/08/04 05:09:40;;;;;;;6.32;2.40;;;;;;;19.63;71.60;93979.66;5007758;28;20207;-73
2022/08/04 05:12:33;;;;;;;3.17;2.30;;;;;;;19.87;70.55;93984.84;5006144;28;20235;-73
2022/08/04 05:15:19;;;;;;;2.30;2.20;;;;;;;20.00;70.27;93984.59;5005463;28;20282;-72
2022/08/04 05:18:06;;;;;;;4.18;2.50;;;;;;;20.17;69.18;93980.25;5009006;28;20483;-72
2022/08/04 05:20:56;;;;;;;3.03;2.73;;;;;;;20.47;68.31;93984.22;5006302;28;20200;-73
2022/08/04 05:23:47;;;;;;;2.60;2.40;;;;;;;20.44;68.61;93977.00;5006252;28;20200;-73
2022/08/04 05:26:44;;;;;;;3.42;2.53;;;;;;;21.00;67.26;93977.47;5007451;28;20227;-73
2022/08/04 05:29:33;;;;;;;5.68;2.45;;;;;;;21.35;66.88;93979.38;5003842;28;20733;-72
2022/08/04 05:32:25;;;;;;;3.35;2.42;;;;;;;21.42;67.06;93983.13;5005295;28;20220;-73
2022/08/04 05:35:15;;;;;;;4.38;2.40;;;;;;;21.65;66.84;93986.03;5006986;28;20287;-72
2022/08/04 05:38:02;;;;;;;2.67;2.35;;;;;;;22.09;65.66;93980.97;5006769;28;20204;-72
2022/08/04 05:40:46;;;;;;;3.38;2.20;;;;;;;22.22;65.44;93987.00;5004725;28;20199;-73
2022/08/04 05:43:31;;;;;;;4.65;3.50;;;;;;;22.70;63.38;93982.66;5005285;28;20199;-73
2022/08/04 05:46:16;;;;;;;2.40;2.20;;;;;;;22.95;62.18;93984.78;5005253;28;20243;-73
2022/08/04 05:49:01;;;;;;;2.50;2.30;;;;;;;23.28;60.36;93979.84;5006263;28;20279;-73
2022/08/04 05:51:47;;;;;;;2.95;2.30;;;;;;;23.64;58.70;93980.75;5007923;28;20605;-73
2022/08/04 05:54:34;;;;;;;2.33;2.20;;;;;;;23.36;58.70;93991.50;5008102;28;20203;-73
2022/08/04 05:57:19;;;;;;;2.47;2.28;;;;;;;23.63;59.71;93982.19;5006811;28;20192;-73
2022/08/04 06:00:05;;;;;;;3.35;2.55;;;;;;;23.96;58.05;93982.91;5021989;28;20269;-73
2022/08/04 06:02:51;;;;;;;2.47;2.17;;;;;;;23.44;59.42;93986.00;5002293;28;20240;-72
2022/08/04 06:05:36;;;;;;;2.15;1.98;;;;;;;24.24;57.72;93985.69;5007686;28;20219;-73
2022/08/04 06:08:20;;;;;;;4.35;2.17;;;;;;;24.63;56.82;93992.94;5006611;28;20196;-73
2022/08/04 06:11:07;;;;;;;4.75;2.20;;;;;;;24.82;57.13;93986.13;5008716;28;20223;-73
2022/08/04 06:14:03;;;;;;;2.47;2.28;;;;;;;24.58;57.44;93989.25;5006437;28;20556;-73
2022/08/04 06:16:49;;;;;;;3.10;1.95;;;;;;;24.50;57.83;93977.66;5007372;28;20208;-74
2022/08/04 06:19:36;;;;;;;3.03;1.98;;;;;;;25.07;56.13;93981.59;5008613;28;20200;-73
2022/08/04 06:22:22;;;;;;;2.97;1.98;;;;;;;25.33;55.58;93985.66;5008300;28;20214;-73
2022/08/04 06:25:09;;;;;;;2.72;2.00;;;;;;;25.45;55.74;93987.25;5004863;28;20207;-73
2022/08/04 06:27:56;;;;;;;2.30;2.05;;;;;;;25.62;55.48;93983.25;5007352;28;20307;-73
2022/08/04 06:30:46;;;;;;;2.90;1.88;;;;;;;26.07;54.42;93985.38;5006040;28;20191;-73
2022/08/04 06:33:35;;;;;;;2.30;2.10;;;;;;;26.11;54.18;93985.44;5006987;28;20212;-73
2022/08/04 06:36:19;;;;;;;4.88;2.30;;;;;;;26.49;53.30;93988.13;5004083;28;20208;-73
2022/08/04 06:39:05;;;;;;;3.28;2.03;;;;;;;26.64;52.10;93991.91;5005323;28;20203;-72
2022/08/04 06:41:50;;;;;;;5.60;2.10;;;;;;;26.30;53.46;93986.44;5007211;28;20349;-73
2022/08/04 06:44:35;;;;;;;3.35;2.42;;;;;;;26.63;51.18;93996.19;5006842;28;20578;-74
2022/08/04 06:47:21;;;;;;;2.60;2.40;;;;;;;26.44;49.98;93988.75;5007540;28;20286;-73
2022/08/04 06:50:06;;;;;;;3.10;1.90;;;;;;;27.27;49.77;94001.22;5002692;28;20208;-73
2022/08/04 06:52:51;;;;;;;2.25;2.05;;;;;;;27.72;48.58;93991.56;5003117;28;20254;-73
2022/08/04 06:55:36;;;;;;;2.03;1.92;;;;;;;27.04;49.71;94003.16;5009730;28;20192;-73
2022/08/04 06:58:22;;;;;;;2.15;1.95;;;;;;;26.77;48.80;93999.25;5010958;28;20210;-73
2022/08/04 07:01:07;;;;;;;2.35;2.05;;;;;;;27.30;48.89;94005.56;5008411;28;20210;-72
2022/08/04 07:03:53;;;;;;;2.53;2.20;;;;;;;27.33;50.06;94004.16;5012323;28;20628;-73
2022/08/04 07:06:38;;;;;;;2.92;2.13;;;;;;;27.70;47.95;94000.22;5011077;28;20594;-74
2022/08/04 07:09:22;;;;;;;2.13;2.00;;;;;;;27.85;47.68;94000.31;5012601;28;20741;-73
2022/08/04 07:12:08;;;;;;;3.30;2.20;;;;;;;28.07;46.29;93994.72;5008761;28;20231;-73
2022/08/04 07:14:54;;;;;;;3.92;2.13;;;;;;;27.60;46.15;94008.75;5010893;28;20699;-73
2022/08/04 07:17:39;;;;;;;4.15;2.08;;;;;;;27.68;47.14;94003.06;5011462;28;20196;-75
2022/08/04 07:20:23;;;;;;;2.53;2.10;;;;;;;27.68;46.16;94008.81;5011815;28;20203;-73
2022/08/04 07:23:10;;;;;;;2.28;2.10;;;;;;;27.21;47.15;94001.91;5013022;28;20330;-75
2022/08/04 07:25:57;;;;;;;2.78;2.58;;;;;;;27.54;46.90;93999.34;5011830;28;20278;-73
2022/08/04 07:28:41;;;;;;;2.75;2.28;;;;;;;27.68;46.13;94003.06;5010131;28;20206;-73
2022/08/04 07:31:26;;;;;;;3.33;2.47;;;;;;;27.43;46.20;94001.38;5011017;28;20318;-75
2022/08/04 07:34:11;;;;;;;2.30;2.10;;;;;;;27.50;46.21;94000.00;5009598;28;20215;-75
2022/08/04 07:36:57;;;;;;;2.47;1.88;;;;;;;27.51;45.92;93994.97;5011306;28;20214;-73
2022/08/04 07:39:42;;;;;;;2.33;2.13;;;;;;;27.41;46.75;93998.47;5009436;28;20208;-74
2022/08/04 07:42:26;;;;;;;3.55;2.03;;;;;;;28.16;46.06;94002.72;5004475;28;20230;-73
2022/08/04 07:45:11;;;;;;;3.58;2.40;;;;;;;28.12;45.32;94014.19;5008373;28;20215;-73
2022/08/04 07:47:55;;;;;;;6.82;2.50;;;;;;;27.98;45.33;94010.47;5011982;28;20203;-74
2022/08/04 07:50:43;;;;;;;2.60;2.40;;;;;;;28.05;45.39;94003.34;5009916;28;20206;-74
2022/08/04 07:53:28;;;;;;;2.85;2.40;;;;;;;28.53;44.16;94012.28;5004191;28;20207;-74
2022/08/04 07:56:13;;;;;;;3.47;2.17;;;;;;;28.54;44.23;94004.34;5009058;28;20191;-75
2022/08/04 07:58:59;;;;;;;1.92;1.60;;;;;;;28.01;45.18;94003.31;5010316;28;20196;-75
2022/08/04 08:01:45;;;;;;;3.78;2.40;;;;;;;28.26;45.67;94007.09;5010242;28;20648;-73
2022/08/04 08:04:30;;;;;;;3.63;1.90;;;;;;;27.96;44.29;94013.38;5010052;28;20251;-74
2022/08/04 08:07:14;;;;;;;2.42;2.20;;;;;;;28.41;43.62;94015.09;5006035;28;20208;-74
2022/08/04 08:09:59;;;;;;;2.08;1.65;;;;;;;27.89;44.69;94003.94;5010975;28;20226;-73
2022/08/04 08:12:43;;;;;;;3.08;2.08;;;;;;;27.93;44.30;94009.72;5007165;28;20242;-73
2022/08/04 08:15:28;;;;;;;4.97;2.35;;;;;;;28.37;43.65;94014.38;5009211;28;20203;-73
2022/08/04 08:18:12;;;;;;;2.22;2.03;;;;;;;28.72;43.38;94006.59;5009337;28;20195;-74
2022/08/04 08:20:57;;;;;;;2.70;2.20;;;;;;;29.53;41.58;94003.97;5008432;28;20196;-73
2022/08/04 08:23:41;;;;;;;6.00;2.55;;;;;;;28.77;42.69;94003.03;5007991;28;20660;-73
2022/08/04 08:26:26;;;;;;;2.13;1.92;;;;;;;29.12;41.59;94006.06;5008146;28;20893;-73
2022/08/04 08:29:11;;;;;;;2.17;1.98;;;;;;;28.52;42.74;94007.94;5010316;28;20199;-72
2022/08/04 08:31:56;;;;;;;2.25;2.08;;;;;;;28.84;42.75;94000.91;5007928;28;20228;-73
2022/08/04 08:34:42;;;;;;;2.25;2.05;;;;;;;28.80;43.55;94007.41;5005718;28;20212;-74
2022/08/04 08:37:36;;;;;;;1.83;1.73;;;;;;;28.90;43.06;94009.59;5009724;28;20227;-74
2022/08/04 08:40:29;;;;;;;4.90;2.20;;;;;;;29.51;42.59;94004.69;5007181;28;20204;-74
2022/08/04 08:43:28;;;;;;;2.50;2.22;;;;;;;29.04;42.55;94012.53;5008688;28;20274;-73
2022/08/04 08:46:45;;;;;;;6.00;2.25;;;;;;;29.52;42.60;94016.97;5006198;28;20676;-74
2022/08/04 08:49:47;;;;;;;2.35;1.92;;;;;;;30.45;40.64;94005.38;5005954;28;20223;-73
2022/08/04 08:52:53;;;;;;;2.50;2.22;;;;;;;30.53;40.46;94016.97;5007894;28;20211;-74
2022/08/04 08:56:05;;;;;;;4.60;2.05;;;;;;;30.97;39.36;94009.56;5011327;28;20593;-73
2022/08/04 08:59:17;;;;;;;2.78;1.98;;;;;;;29.81;39.95;94006.91;5008566;28;20711;-74
2022/08/04 09:02:19;;;;;;;4.57;2.15;;;;;;;31.21;38.69;94009.47;5006293;28;20295;-74
2022/08/04 09:05:12;;;;;;;2.72;1.90;;;;;;;31.40;38.63;94007.94;5010428;28;20223;-73
2022/08/04 09:08:25;;;;;;;2.45;2.10;;;;;;;30.46;38.69;94012.63;5010569;28;20195;-73
2022/08/04 09:11:14;;;;;;;2.58;1.83;;;;;;;29.95;40.48;94006.91;5004527;28;20270;-73
2022/08/04 09:14:15;;;;;;;3.58;2.25;;;;;;;31.32;38.69;94017.38;5009060;28;20668;-73
2022/08/04 09:17:04;;;;;;;2.40;1.98;;;;;;;31.57;38.21;94015.03;5008339;28;20653;-73
2022/08/04 09:19:57;;;;;;;1.77;1.67;;;;;;;31.49;38.52;94014.38;5007487;28;20246;-73
2022/08/04 09:23:15;;;;;;;3.28;2.05;;;;;;;31.27;38.88;94012.34;5006685;28;20266;-74
2022/08/04 09:26:07;;;;;;;3.95;1.83;;;;;;;31.74;38.07;94016.41;5018164;28;20208;-73
2022/08/04 09:29:09;;;;;;;2.38;1.92;;;;;;;31.26;38.53;94010.91;5009710;28;20234;-74
2022/08/04 09:32:03;;;;;;;3.60;2.00;;;;;;;31.53;38.00;94020.88;5005582;28;20261;-73
2022/08/04 09:34:53;;;;;;;3.95;2.20;;;;;;;30.97;38.50;94015.38;5006796;28;20200;-75
2022/08/04 09:37:53;;;;;;;3.05;2.17;;;;;;;31.62;37.91;94013.59;5003804;28;20204;-74
2022/08/04 09:40:59;;;;;;;2.65;1.80;;;;;;;31.94;36.62;94017.69;5009450;28;20295;-74
2022/08/04 09:44:11;;;;;;;3.75;2.08;;;;;;;31.55;37.17;94012.16;5005408;28;20195;-73
2022/08/04 09:47:18;;;;;;;1.90;1.80;;;;;;;31.40;37.47;94013.72;5003566;28;20199;-73
2022/08/04 09:50:20;;;;;;;2.42;1.80;;;;;;;31.82;35.18;94014.91;5003562;28;20203;-74
2022/08/04 09:53:41;;;;;;;1.60;1.50;;;;;;;31.22;35.36;94013.81;5008941;28;20207;-74
2022/08/04 09:56:41;;;;;;;2.08;1.63;;;;;;;31.25;37.03;94015.97;5004880;28;20198;-74
2022/08/04 09:59:55;;;;;;;2.17;2.08;;;;;;;31.17;36.01;94009.50;5006707;28;20203;-73
2022/08/04 10:02:45;;;;;;;2.20;2.00;;;;;;;31.03;36.39;94012.44;4999649;28;20199;-75
2022/08/04 10:05:50;;;;;;;2.05;1.80;;;;;;;31.22;37.46;94008.75;5001669;28;20228;-73
2022/08/04 10:09:05;;;;;;;1.95;1.77;;;;;;;32.20;37.53;94017.50;5008050;28;20204;-73
2022/08/04 10:12:02;;;;;;;1.92;1.77;;;;;;;31.77;37.10;94013.50;5008329;28;20227;-73
2022/08/04 10:14:52;;;;;;;3.00;2.00;;;;;;;32.07;34.24;94016.88;5000002;28;20200;-73
2022/08/04 10:17:43;;;;;;;2.85;1.40;;;;;;;32.36;33.92;94010.81;5005550;28;20199;-73
2022/08/04 10:20:50;;;;;;;1.75;1.48;;;;;;;32.19;34.42;94016.06;5001869;28;20405;-74
2022/08/04 10:23:57;;;;;;;1.60;1.50;;;;;;;32.83;32.68;94019.78;5007003;28;20203;-73
2022/08/04 10:27:05;;;;;;;2.33;1.40;;;;;;;32.02;31.54;94011.84;5004823;28;20648;-73
2022/08/04 10:29:53;;;;;;;1.65;1.42;;;;;;;32.70;30.95;94006.88;5002726;28;20195;-74
2022/08/04 10:33:03;;;;;;;2.42;1.42;;;;;;;33.09;30.70;94010.72;5009214;28;20219;-74
2022/08/04 10:35:51;;;;;;;1.70;1.33;;;;;;;32.54;30.64;94013.53;5005016;28;20199;-74
2022/08/04 10:38:55;;;;;;;2.50;1.33;;;;;;;33.25;29.34;94013.47;5011357;28;20278;-73
2022/08/04 10:41:51;;;;;;;2.95;1.65;;;;;;;33.07;30.17;94007.88;5006364;28;20665;-74
2022/08/04 10:44:50;;;;;;;2.88;1.20;;;;;;;32.99;30.58;94005.06;5007686;28;20203;-74
2022/08/04 10:47:42;;;;;;;1.48;1.25;;;;;;;32.95;29.37;94008.03;5010188;28;20223;-72
2022/08/04 10:50:28;;;;;;;2.65;1.38;;;;;;;32.71;32.90;94014.81;5011620;28;20200;-73
2022/08/04 10:53:18;;;;;;;3.42;1.50;;;;;;;33.08;30.89;94006.41;5007625;28;20203;-73
2022/08/04 10:56:10;;;;;;;2.20;1.60;;;;;;;32.65;31.03;93994.53;5001890;28;20201;-73
2022/08/04 10:59:18;;;;;;;1.80;1.70;;;;;;;33.05;32.29;94007.16;5011175;28;20203;-74
2022/08/04 11:02:36;;;;;;;2.70;1.60;;;;;;;33.27;29.51;93996.00;5008836;28;20196;-73
2022/08/04 11:05:30;;;;;;;2.65;1.50;;;;;;;33.42;31.12;94004.53;4981202;28;20219;-73
2022/08/04 11:08:24;;;;;;;1.75;1.65;;;;;;;33.13;29.86;93999.09;5011838;28;20559;-74
2022/08/04 11:11:31;;;;;;;1.67;1.58;;;;;;;33.55;29.99;93994.16;5005752;28;20234;-73
2022/08/04 11:14:19;;;;;;;1.73;1.42;;;;;;;33.08;31.62;93997.69;5006968;28;20673;-73
2022/08/04 11:17:06;;;;;;;2.78;1.63;;;;;;;33.24;30.64;93997.50;5005509;28;20204;-74
2022/08/04 11:20:12;;;;;;;1.58;1.48;;;;;;;32.91;31.71;93991.34;5004083;28;20192;-74
2022/08/04 11:23:08;;;;;;;3.28;1.83;;;;;;;33.69;29.95;93988.13;5007712;28;20199;-73
2022/08/04 11:26:07;;;;;;;3.33;1.60;;;;;;;33.19;31.05;93990.31;5007845;28;20203;-72
2022/08/04 11:29:15;;;;;;;2.22;1.70;;;;;;;33.35;30.76;93995.16;5008571;28;20204;-73
2022/08/04 11:32:02;;;;;;;2.13;1.90;;;;;;;33.86;30.95;93992.25;5010690;28;20223;-74
2022/08/04 11:34:52;;;;;;;3.83;1.98;;;;;;;33.64;31.27;93995.47;5003149;28;20196;-74
2022/08/04 11:38:01;;;;;;;2.30;2.10;;;;;;;33.77;32.19;93984.41;5008090;28;20337;-74
2022/08/04 11:40:49;;;;;;;3.58;1.92;;;;;;;33.71;33.35;93988.13;5008351;28;20187;-74
2022/08/04 11:43:40;;;;;;;5.20;1.80;;;;;;;33.02;33.49;93986.13;5006802;28;20602;-74
2022/08/04 11:46:35;;;;;;;2.40;1.75;;;;;;;33.75;32.13;93988.06;5008383;28;20208;-73
2022/08/04 11:49:33;;;;;;;2.75;1.98;;;;;;;34.39;31.57;93991.38;5005755;28;20610;-74
2022/08/04 11:52:20;;;;;;;1.75;1.58;;;;;;;34.90;32.03;93988.22;5006095;28;20227;-73
2022/08/04 11:55:08;;;;;;;2.97;1.52;;;;;;;34.83;29.43;93993.47;5007126;28;20265;-73
2022/08/04 11:57:53;;;;;;;2.63;1.70;;;;;;;34.10;30.61;93979.50;5004427;28;20252;-73
2022/08/04 12:00:44;;;;;;;1.92;1.60;;;;;;;33.11;31.95;93986.75;5008006;28;20295;-74
2022/08/04 12:03:45;;;;;;;2.28;1.83;;;;;;;33.97;32.20;93976.06;5006700;28;20200;-73
2022/08/04 12:06:55;;;;;;;2.00;1.80;;;;;;;34.18;31.19;93981.56;5025360;28;20451;-73
2022/08/04 12:10:08;;;;;;;2.08;1.80;;;;;;;33.69;30.58;93991.03;5007040;28;20221;-72
2022/08/04 12:12:52;;;;;;;2.47;1.80;;;;;;;34.34;30.94;93987.81;5005885;28;20291;-74
2022/08/04 12:16:01;;;;;;;3.60;2.15;;;;;;;34.14;31.30;93985.22;5002615;28;20550;-73
2022/08/04 12:18:56;;;;;;;3.25;2.00;;;;;;;34.53;30.18;93979.47;5008986;28;20203;-73
2022/08/04 12:21:44;;;;;;;3.47;1.55;;;;;;;34.61;29.04;93975.69;5001022;28;20539;-72
2022/08/04 12:24:40;;;;;;;2.45;2.00;;;;;;;34.20;29.91;93972.78;5007218;28;20661;-75
2022/08/04 12:27:30;;;;;;;2.15;1.60;;;;;;;34.07;30.03;93970.06;5005140;28;20539;-72
2022/08/04 12:30:18;;;;;;;1.70;1.50;;;;;;;34.02;32.38;93965.81;5009434;28;20228;-73
2022/08/04 12:33:19;;;;;;;4.88;1.75;;;;;;;34.31;30.74;93974.06;5005391;28;20230;-74
2022/08/04 12:36:23;;;;;;;2.47;1.80;;;;;;;34.98;28.91;93975.72;5004511;28;20691;-74
2022/08/04 12:39:14;;;;;;;4.38;1.80;;;;;;;34.94;27.99;93970.66;5004757;28;20559;-73
2022/08/04 12:42:09;;;;;;;1.73;1.63;;;;;;;34.66;28.94;93969.03;5008879;28;20250;-73
2022/08/04 12:44:56;;;;;;;2.05;1.60;;;;;;;35.07;28.52;93965.31;5005076;28;20214;-75
2022/08/04 12:47:41;;;;;;;1.88;1.40;;;;;;;35.13;28.32;93962.25;5008234;28;20223;-74
2022/08/04 12:50:26;;;;;;;1.80;1.30;;;;;;;35.18;26.72;93958.50;5006981;28;20243;-72
2022/08/04 12:53:13;;;;;;;1.75;1.40;;;;;;;34.96;27.00;93961.19;5004173;28;20204;-73
2022/08/04 12:55:59;;;;;;;2.58;1.95;;;;;;;35.02;26.62;93958.13;5004565;28;20214;-72
2022/08/04 12:58:47;;;;;;;1.92;1.48;;;;;;;33.91;28.12;93947.09;5008969;28;20204;-74
2022/08/04 13:01:33;;;;;;;3.60;1.60;;;;;;;34.94;28.46;93959.00;4988037;28;20205;-73
2022/08/04 13:04:20;;;;;;;1.70;1.60;;;;;;;34.56;28.06;93957.59;5004511;28;20246;-73
2022/08/04 13:07:12;;;;;;;3.13;1.80;;;;;;;35.12;28.67;93949.19;5001225;28;20681;-73
2022/08/04 13:09:59;;;;;;;3.72;1.70;;;;;;;35.15;27.05;93956.41;5007210;28;20235;-73
2022/08/04 13:12:51;;;;;;;1.85;1.75;;;;;;;34.78;28.31;93944.81;5003691;28;20551;-73
2022/08/04 13:15:36;;;;;;;2.28;1.30;;;;;;;35.01;27.16;93945.03;5000462;28;20215;-74
2022/08/04 13:18:22;;;;;;;1.50;1.40;;;;;;;34.69;27.96;93938.38;5003861;28;20200;-73
2022/08/04 13:21:13;;;;;;;1.67;1.58;;;;;;;35.51;27.87;93943.94;5008905;28;20584;-72
2022/08/04 13:24:02;;;;;;;4.13;1.80;;;;;;;35.22;28.46;93935.16;5004738;28;20207;-73
2022/08/04 13:26:49;;;;;;;1.88;1.60;;;;;;;35.42;27.99;93942.00;5003910;28;20527;-72
2022/08/04 13:29:42;;;;;;;2.13;1.63;;;;;;;35.07;27.67;93936.19;5006412;28;20289;-75
2022/08/04 13:32:27;;;;;;;1.55;1.45;;;;;;;34.97;28.58;93933.50;5005524;28;20301;-73
2022/08/04 13:35:12;;;;;;;3.45;1.67;;;;;;;34.82;29.76;93930.88;5003648;28;20215;-73
2022/08/04 13:37:58;;;;;;;4.43;1.80;;;;;;;35.62;27.59;93933.47;5002989;28;20282;-73
2022/08/04 13:40:43;;;;;;;4.60;1.77;;;;;;;35.35;25.98;93926.84;5010249;28;20196;-72
2022/08/04 13:43:32;;;;;;;2.85;1.52;;;;;;;34.59;28.16;93921.13;5002777;28;20287;-74